createdAt,value
2023-05-17T00:01:57.877Z,15.30
2023-05-17T00:04:24.454Z,12.80
2023-05-17T00:06:51.114Z,12.90
2023-05-17T00:09:17.726Z,11.50
2023-05-17T00:11:44.283Z,11.20
2023-05-17T00:14:11.814Z,12.30
2023-05-17T00:16:38.432Z,11.60
2023-05-17T00:19:05.042Z,9.50
2023-05-17T00:21:31.712Z,14.20
2023-05-17T00:24:00.901Z,14.60
2023-05-17T00:26:27.628Z,13.30
2023-05-17T00:28:54.364Z,11.90
2023-05-17T00:31:20.965Z,9.20
2023-05-17T00:33:47.705Z,7.30
2023-05-17T00:36:14.281Z,11.00
2023-05-17T00:38:40.823Z,16.40
2023-05-17T00:41:07.401Z,17.00
2023-05-17T00:43:34.091Z,11.10
2023-05-17T00:46:00.669Z,8.50
2023-05-17T00:48:29.338Z,7.30
2023-05-17T00:50:56.816Z,8.20
2023-05-17T00:53:24.110Z,7.90
2023-05-17T00:55:51.073Z,5.90
2023-05-17T00:58:17.803Z,5.40
2023-05-17T01:00:46.683Z,5.50
2023-05-17T01:03:13.391Z,5.60
2023-05-17T01:05:40.553Z,4.80
2023-05-17T01:08:07.124Z,4.70
2023-05-17T01:10:50.120Z,4.60
2023-05-17T01:13:46.633Z,4.40
2023-05-17T01:16:23.174Z,4.50
2023-05-17T01:18:59.262Z,5.30
2023-05-17T01:21:32.081Z,5.30
2023-05-17T01:24:14.065Z,4.90
2023-05-17T01:26:46.000Z,5.30
2023-05-17T01:29:16.232Z,5.60
2023-05-17T01:31:43.825Z,6.10
2023-05-17T01:34:10.851Z,6.30
2023-05-17T01:36:37.442Z,6.90
2023-05-17T01:39:03.995Z,6.10
2023-05-17T01:41:33.811Z,6.20
2023-05-17T01:44:08.839Z,7.20
2023-05-17T01:46:40.825Z,7.60
2023-05-17T01:49:30.857Z,8.60
2023-05-17T01:54:50.881Z,8.00
2023-05-17T01:57:20.701Z,7.10
2023-05-17T01:59:49.882Z,6.70
2023-05-17T02:02:16.668Z,6.50
2023-05-17T02:04:43.210Z,6.00
2023-05-17T02:07:09.915Z,4.90
2023-05-17T02:09:36.454Z,4.60
2023-05-17T02:12:03.066Z,4.90
2023-05-17T02:14:30.204Z,4.90
2023-05-17T02:17:05.735Z,4.30
2023-05-17T02:19:32.600Z,5.00
2023-05-17T02:22:00.155Z,4.80
2023-05-17T02:24:27.006Z,4.30
2023-05-17T02:26:53.638Z,4.30
2023-05-17T02:29:20.253Z,4.20
2023-05-17T02:31:46.786Z,4.70
2023-05-17T02:34:13.331Z,4.60
2023-05-17T02:36:41.124Z,4.00
2023-05-17T02:39:07.693Z,4.50
2023-05-17T02:41:34.243Z,5.00
2023-05-17T02:44:01.187Z,4.40
2023-05-17T02:46:27.772Z,4.70
2023-05-17T02:48:54.291Z,4.20
2023-05-17T02:51:20.960Z,4.10
2023-05-17T02:53:47.589Z,4.50
2023-05-17T02:56:14.200Z,4.10
2023-05-17T02:58:41.426Z,3.80
2023-05-17T03:01:09.620Z,4.30
2023-05-17T03:03:36.373Z,3.90
2023-05-17T03:06:05.157Z,3.80
2023-05-17T03:08:32.554Z,4.70
2023-05-17T03:11:00.433Z,4.80
2023-05-17T03:13:27.166Z,5.30
2023-05-17T03:15:53.731Z,5.10
2023-05-17T03:18:20.678Z,5.60
2023-05-17T03:20:48.263Z,5.90
2023-05-17T03:23:15.169Z,6.20
2023-05-17T03:25:57.418Z,7.00
2023-05-17T03:28:25.745Z,7.90
2023-05-17T03:30:52.877Z,9.00
2023-05-17T03:33:20.164Z,9.10
2023-05-17T03:35:47.113Z,10.00
2023-05-17T03:38:13.938Z,10.80
2023-05-17T03:40:41.479Z,10.70
2023-05-17T03:43:08.335Z,11.20
2023-05-17T03:45:35.995Z,11.70
2023-05-17T03:48:02.777Z,12.30
2023-05-17T03:50:32.687Z,12.00
2023-05-17T03:52:59.299Z,12.20
2023-05-17T03:55:26.777Z,11.80
2023-05-17T03:57:54.342Z,12.60
2023-05-17T04:00:24.627Z,13.40
2023-05-17T04:02:52.813Z,13.20
2023-05-17T04:05:20.216Z,12.80
2023-05-17T04:07:47.722Z,13.10
2023-05-17T04:10:14.485Z,12.70
2023-05-17T04:12:41.426Z,12.90
2023-05-17T04:15:08.635Z,12.70
2023-05-17T04:17:36.597Z,12.20
2023-05-17T04:20:06.554Z,12.40
2023-05-17T04:22:33.736Z,12.50
2023-05-17T04:25:00.392Z,12.50
2023-05-17T04:27:27.228Z,11.70
2023-05-17T04:29:53.977Z,11.50
2023-05-17T04:32:21.692Z,12.00
2023-05-17T04:34:48.367Z,11.10
2023-05-17T04:37:16.976Z,11.00
2023-05-17T04:39:44.088Z,10.50
2023-05-17T04:42:10.764Z,10.10
2023-05-17T04:44:39.800Z,10.40
2023-05-17T04:47:06.418Z,9.00
2023-05-17T04:49:33.358Z,9.50
2023-05-17T04:52:00.100Z,10.20
2023-05-17T04:54:27.271Z,8.80
2023-05-17T04:56:53.862Z,8.40
2023-05-17T04:59:36.386Z,8.40
2023-05-17T05:02:03.030Z,8.80
2023-05-17T05:04:29.943Z,8.10
2023-05-17T05:06:56.776Z,8.70
2023-05-17T05:09:23.849Z,8.80
2023-05-17T05:11:50.647Z,8.90
2023-05-17T05:14:17.273Z,9.60
2023-05-17T05:16:44.120Z,9.60
2023-05-17T05:19:11.214Z,10.10
2023-05-17T05:21:38.051Z,9.60
2023-05-17T05:24:05.245Z,9.60
2023-05-17T05:26:32.044Z,10.50
2023-05-17T05:29:00.516Z,10.00
2023-05-17T05:31:27.366Z,11.90
2023-05-17T05:33:54.438Z,9.50
2023-05-17T05:36:21.457Z,10.50
2023-05-17T05:38:48.729Z,10.10
2023-05-17T05:41:15.555Z,10.00
2023-05-17T05:43:42.261Z,10.20
2023-05-17T05:46:11.526Z,10.00
2023-05-17T05:48:41.774Z,10.90
2023-05-17T05:51:08.606Z,10.40
2023-05-17T05:53:35.780Z,10.40
2023-05-17T05:56:03.243Z,10.60
2023-05-17T05:58:31.652Z,11.50
2023-05-17T06:00:58.639Z,10.80
2023-05-17T06:03:25.353Z,11.40
2023-05-17T06:05:52.005Z,11.10
2023-05-17T06:08:18.982Z,11.70
2023-05-17T06:10:46.331Z,11.30
2023-05-17T06:13:12.955Z,11.50
2023-05-17T06:15:40.602Z,12.20
2023-05-17T06:18:07.386Z,12.70
2023-05-17T06:20:39.430Z,13.80
2023-05-17T06:23:06.125Z,14.20
2023-05-17T06:25:32.699Z,12.80
2023-05-17T06:27:59.457Z,11.50
2023-05-17T06:30:27.742Z,11.00
2023-05-17T06:32:54.640Z,10.40
2023-05-17T06:35:21.266Z,9.80
2023-05-17T06:37:47.929Z,9.10
2023-05-17T06:40:16.697Z,8.70
2023-05-17T06:42:43.960Z,9.00
2023-05-17T06:45:12.540Z,8.60
2023-05-17T06:47:39.347Z,8.80
2023-05-17T06:50:07.461Z,7.80
2023-05-17T06:52:35.401Z,7.90
2023-05-17T06:55:02.034Z,7.00
2023-05-17T06:57:28.731Z,7.10
2023-05-17T06:59:55.365Z,7.10
2023-05-17T07:02:22.043Z,6.50
2023-05-17T07:04:48.796Z,7.10
2023-05-17T07:07:15.613Z,6.70
2023-05-17T07:09:42.265Z,6.00
2023-05-17T07:12:08.982Z,5.50
2023-05-17T07:14:35.795Z,5.50
2023-05-17T07:17:02.503Z,5.20
2023-05-17T07:19:29.265Z,5.30
2023-05-17T07:21:56.009Z,4.50
2023-05-17T07:24:22.819Z,4.80
2023-05-17T07:26:51.538Z,5.10
2023-05-17T07:29:19.080Z,5.30
2023-05-17T07:31:46.089Z,5.50
2023-05-17T07:34:13.714Z,5.50
2023-05-17T07:36:40.608Z,5.10
2023-05-17T07:39:08.816Z,5.40
2023-05-17T07:41:36.663Z,4.90
2023-05-17T07:44:03.362Z,4.90
2023-05-17T07:46:30.137Z,5.30
2023-05-17T07:48:58.797Z,5.30
2023-05-17T07:51:26.469Z,5.00
2023-05-17T07:56:30.941Z,4.70
2023-05-17T07:59:00.206Z,5.00
2023-05-17T08:01:27.611Z,4.20
2023-05-17T08:03:54.315Z,4.10
2023-05-17T08:06:23.921Z,4.30
2023-05-17T08:08:50.951Z,4.60
2023-05-17T08:11:18.383Z,4.00
2023-05-17T08:13:47.846Z,4.00
2023-05-17T08:16:15.042Z,4.00
2023-05-17T08:18:43.588Z,4.50
2023-05-17T08:21:11.427Z,4.10
2023-05-17T08:23:38.312Z,3.20
2023-05-17T08:26:05.204Z,3.50
2023-05-17T08:28:31.962Z,3.80
2023-05-17T08:30:58.639Z,3.60
2023-05-17T08:33:26.286Z,3.10
2023-05-17T08:35:57.599Z,2.70
2023-05-17T08:38:24.475Z,2.60
2023-05-17T08:40:56.190Z,2.70
2023-05-17T08:43:27.591Z,3.60
2023-05-17T08:45:58.050Z,3.20
2023-05-17T08:48:31.408Z,2.60
2023-05-17T08:51:00.163Z,3.00
2023-05-17T08:53:27.219Z,3.20
2023-05-17T08:55:58.941Z,3.30
2023-05-17T08:58:34.184Z,3.50
2023-05-17T09:01:07.178Z,3.60
2023-05-17T09:03:35.569Z,3.60
2023-05-17T09:06:03.702Z,3.90
2023-05-17T09:08:32.879Z,4.00
2023-05-17T09:10:59.582Z,3.90
2023-05-17T09:13:26.740Z,4.10
2023-05-17T09:15:54.514Z,4.00
2023-05-17T09:18:32.050Z,4.30
2023-05-17T09:21:04.785Z,5.00
2023-05-17T09:23:33.635Z,4.00
2023-05-17T09:26:10.906Z,4.50
2023-05-17T09:28:42.308Z,4.50
2023-05-17T09:31:10.745Z,4.40
2023-05-17T09:33:49.430Z,4.20
2023-05-17T09:36:20.526Z,4.10
2023-05-17T09:38:54.164Z,4.70
2023-05-17T09:41:22.245Z,4.10
2023-05-17T09:43:49.462Z,5.00
2023-05-17T09:46:17.138Z,4.30
2023-05-17T09:48:45.534Z,4.90
2023-05-17T09:51:13.294Z,4.50
2023-05-17T09:53:41.633Z,5.00
2023-05-17T09:56:10.330Z,5.60
2023-05-17T09:58:38.074Z,5.30
2023-05-17T10:01:06.754Z,4.90
2023-05-17T10:03:38.166Z,4.90
2023-05-17T10:06:13.240Z,4.70
2023-05-17T10:08:47.774Z,5.20
2023-05-17T10:11:14.659Z,5.80
2023-05-17T10:13:49.974Z,4.90
2023-05-17T10:16:18.814Z,4.70
2023-05-17T10:18:48.236Z,4.90
2023-05-17T10:21:15.892Z,4.60
2023-05-17T10:23:44.608Z,4.30
2023-05-17T10:26:14.334Z,5.30
2023-05-17T10:28:42.364Z,4.80
2023-05-17T10:31:09.271Z,4.40
2023-05-17T10:33:36.581Z,4.10
2023-05-17T10:36:06.687Z,7.10
2023-05-17T10:38:42.005Z,5.80
2023-05-17T10:41:14.835Z,4.90
2023-05-17T10:43:43.287Z,4.30
2023-05-17T10:46:15.814Z,5.00
2023-05-17T10:48:43.818Z,4.80
2023-05-17T10:51:12.152Z,4.40
2023-05-17T10:54:08.259Z,4.90
2023-05-17T10:56:34.938Z,4.70
2023-05-17T10:59:19.644Z,5.10
2023-05-17T11:02:08.542Z,4.70
2023-05-17T11:04:39.298Z,5.00
2023-05-17T11:07:20.298Z,5.50
2023-05-17T11:09:50.591Z,4.40
2023-05-17T11:12:34.933Z,5.10
2023-05-17T11:15:08.738Z,4.90
2023-05-17T11:17:45.878Z,4.80
2023-05-17T11:20:16.792Z,4.70
2023-05-17T11:22:50.019Z,5.90
2023-05-17T11:25:17.152Z,4.40
2023-05-17T11:27:48.232Z,5.10
2023-05-17T11:30:29.599Z,5.80
2023-05-17T11:33:05.723Z,5.20
2023-05-17T11:35:37.661Z,5.10
2023-05-17T11:38:14.554Z,4.90
2023-05-17T11:40:42.305Z,4.60
2023-05-17T11:43:17.171Z,5.30
2023-05-17T11:45:50.006Z,6.40
2023-05-17T11:48:20.920Z,5.90
2023-05-17T11:50:49.519Z,6.20
2023-05-17T11:53:16.820Z,7.10
2023-05-17T11:55:48.765Z,16.20
2023-05-17T11:58:18.088Z,14.90
2023-05-17T12:00:45.251Z,8.50
2023-05-17T12:03:20.299Z,6.60
2023-05-17T12:05:49.000Z,7.10
2023-05-17T12:08:18.181Z,6.80
2023-05-17T12:10:47.011Z,6.60
2023-05-17T12:13:13.722Z,6.30
2023-05-17T12:15:41.284Z,5.40
2023-05-17T12:18:08.332Z,6.00
2023-05-17T12:20:37.709Z,6.10
2023-05-17T12:23:04.964Z,5.80
2023-05-17T12:25:31.617Z,5.80
2023-05-17T12:28:22.213Z,6.20
2023-05-17T12:30:54.760Z,7.00
2023-05-17T12:33:21.498Z,6.30
2023-05-17T12:35:49.728Z,8.40
2023-05-17T12:38:16.591Z,8.80
2023-05-17T12:40:43.630Z,9.40
2023-05-17T12:43:10.489Z,8.30
2023-05-17T12:45:37.082Z,7.20
2023-05-17T12:48:03.911Z,7.90
2023-05-17T12:50:31.610Z,6.60
2023-05-17T12:52:58.839Z,7.20
2023-05-17T12:55:26.360Z,6.90
2023-05-17T12:57:54.250Z,6.90
2023-05-17T13:00:21.678Z,6.30
2023-05-17T13:02:48.659Z,6.20
2023-05-17T13:05:22.059Z,7.10
2023-05-17T13:07:49.033Z,6.70
2023-05-17T13:10:27.366Z,5.80
2023-05-17T13:12:59.468Z,6.60
2023-05-17T13:15:31.057Z,6.00
2023-05-17T13:18:00.125Z,6.20
2023-05-17T13:20:27.806Z,6.40
2023-05-17T13:22:54.958Z,6.50
2023-05-17T13:25:21.590Z,6.20
2023-05-17T13:27:50.953Z,5.50
2023-05-17T13:30:17.921Z,6.20
2023-05-17T13:32:45.140Z,5.70
2023-05-17T13:35:12.187Z,6.20
2023-05-17T13:37:38.935Z,6.40
2023-05-17T13:40:07.145Z,6.60
2023-05-17T13:42:34.199Z,7.30
2023-05-17T13:45:01.648Z,7.10
2023-05-17T13:47:32.466Z,6.60
2023-05-17T13:50:00.930Z,6.80
2023-05-17T13:52:28.174Z,6.80
2023-05-17T13:54:55.041Z,6.90
2023-05-17T13:57:21.925Z,7.10
2023-05-17T13:59:48.624Z,7.40
2023-05-17T14:02:15.380Z,7.00
2023-05-17T14:04:42.081Z,7.80
2023-05-17T14:07:08.673Z,6.20
2023-05-17T14:09:36.818Z,6.00
2023-05-17T14:12:04.248Z,6.30
2023-05-17T14:14:31.219Z,6.10
2023-05-17T14:17:00.391Z,5.60
2023-05-17T14:19:27.085Z,6.50
2023-05-17T14:21:54.088Z,6.50
2023-05-17T14:24:20.918Z,6.00
2023-05-17T14:26:47.764Z,6.20
2023-05-17T14:29:14.490Z,7.10
2023-05-17T14:31:41.564Z,6.60
2023-05-17T14:34:08.235Z,5.60
2023-05-17T14:36:36.521Z,6.00
2023-05-17T14:39:03.930Z,6.50
2023-05-17T14:41:30.676Z,6.20
2023-05-17T14:44:00.000Z,6.40
2023-05-17T14:46:26.663Z,6.60
2023-05-17T14:48:53.534Z,6.50
2023-05-17T14:51:20.253Z,6.40
2023-05-17T14:53:47.545Z,6.70
2023-05-17T14:56:15.292Z,7.00
2023-05-17T14:58:42.572Z,8.50
2023-05-17T15:01:09.535Z,7.20
2023-05-17T15:03:37.566Z,7.50
2023-05-17T15:06:07.727Z,8.40
2023-05-17T15:08:37.151Z,7.70
2023-05-17T15:11:03.836Z,7.30
2023-05-17T15:13:31.075Z,6.90
2023-05-17T15:15:58.085Z,7.20
2023-05-17T15:18:24.794Z,6.30
2023-05-17T15:20:51.826Z,6.20
2023-05-17T15:23:18.548Z,6.60
2023-05-17T15:25:45.247Z,7.10
2023-05-17T15:28:12.140Z,7.20
2023-05-17T15:30:41.356Z,7.00
2023-05-17T15:33:08.972Z,7.80
2023-05-17T15:35:35.727Z,6.70
2023-05-17T15:38:06.037Z,6.50
2023-05-17T15:40:33.301Z,7.00
2023-05-17T15:43:00.160Z,6.70
2023-05-17T15:45:27.011Z,6.70
2023-05-17T15:47:55.532Z,6.10
2023-05-17T15:50:22.185Z,6.10
2023-05-17T15:52:49.182Z,7.00
2023-05-17T15:55:16.357Z,7.20
2023-05-17T15:57:43.374Z,7.10
2023-05-17T16:00:11.161Z,7.30
2023-05-17T16:02:37.972Z,7.30
2023-05-17T16:05:05.344Z,6.30
2023-05-17T16:07:32.559Z,6.80
2023-05-17T16:09:59.233Z,7.40
2023-05-17T16:12:25.988Z,7.40
2023-05-17T16:14:52.559Z,8.20
2023-05-17T16:17:19.324Z,7.80
